sensor_id;sensor_type;location;lat;lon;timestamp;P1;durP1;ratioP1;P2;durP2;ratioP2
63114;SDS011;49208;50.874;6.466;2023-03-14T07:01:39;0.85;;;0.30;;
63114;SDS011;49208;50.874;6.466;2023-03-14T07:04:05;1.10;;;0.40;;
63114;SDS011;49208;50.874;6.466;2023-03-14T07:06:31;0.63;;;0.20;;
63114;SDS011;49208;50.874;6.466;2023-03-14T07:08:56;1.65;;;0.30;;
63114;SDS011;49208;50.874;6.466;2023-03-14T07:11:22;1.05;;;0.22;;
63114;SDS011;49208;50.874;6.466;2023-03-14T07:13:47;0.30;;;0.10;;
63114;SDS011;49208;50.874;6.466;2023-03-14T07:16:13;0.50;;;0.20;;
63114;SDS011;49208;50.874;6.466;2023-03-14T07:18:38;1.30;;;0.17;;
63114;SDS011;49208;50.874;6.466;2023-03-14T07:21:04;0.70;;;0.35;;
63114;SDS011;49208;50.874;6.466;2023-03-14T07:23:37;0.73;;;0.20;;
63114;SDS011;49208;50.874;6.466;2023-03-14T07:26:03;0.68;;;0.68;;
63114;SDS011;49208;50.874;6.466;2023-03-14T07:28:29;0.43;;;0.20;;
63114;SDS011;49208;50.874;6.466;2023-03-14T07:30:54;1.45;;;0.22;;
63114;SDS011;49208;50.874;6.466;2023-03-14T07:33:19;0.70;;;0.20;;
63114;SDS011;49208;50.874;6.466;2023-03-14T07:35:48;0.73;;;0.15;;
63114;SDS011;49208;50.874;6.466;2023-03-14T07:38:14;1.42;;;0.40;;
63114;SDS011;49208;50.874;6.466;2023-03-14T07:40:40;1.10;;;0.30;;
63114;SDS011;49208;50.874;6.466;2023-03-14T07:43:06;0.57;;;0.32;;
63114;SDS011;49208;50.874;6.466;2023-03-14T07:45:31;0.77;;;0.30;;
63114;SDS011;49208;50.874;6.466;2023-03-14T07:47:56;0.10;;;0.10;;
63114;SDS011;49208;50.874;6.466;2023-03-14T07:50:23;0.70;;;0.28;;
63114;SDS011;49208;50.874;6.466;2023-03-14T07:52:49;1.65;;;0.30;;
63114;SDS011;49208;50.874;6.466;2023-03-14T07:55:15;0.93;;;0.30;;
63114;SDS011;49208;50.874;6.466;2023-03-14T07:57:40;0.20;;;0.20;;
63114;SDS011;49208;50.874;6.466;2023-03-14T08:00:06;2.30;;;0.20;;
63114;SDS011;49208;50.874;6.466;2023-03-14T08:02:32;0.47;;;0.20;;
63114;SDS011;49208;50.874;6.466;2023-03-14T08:04:58;1.52;;;0.30;;
63114;SDS011;49208;50.874;6.466;2023-03-14T08:07:23;1.02;;;0.30;;
63114;SDS011;49208;50.874;6.466;2023-03-14T08:09:49;1.15;;;0.30;;
63114;SDS011;49208;50.874;6.466;2023-03-14T08:12:14;0.57;;;0.20;;
63114;SDS011;49208;50.874;6.466;2023-03-14T08:14:40;0.82;;;0.30;;
63114;SDS011;49208;50.874;6.466;2023-03-14T08:17:06;1.02;;;0.38;;
63114;SDS011;49208;50.874;6.466;2023-03-14T08:19:33;1.67;;;0.30;;
63114;SDS011;49208;50.874;6.466;2023-03-14T08:21:58;1.63;;;0.38;;
63114;SDS011;49208;50.874;6.466;2023-03-14T08:24:24;0.60;;;0.38;;
63114;SDS011;49208;50.874;6.466;2023-03-14T08:26:49;3.85;;;0.85;;
63114;SDS011;49208;50.874;6.466;2023-03-14T08:29:14;2.67;;;0.50;;
63114;SDS011;49208;50.874;6.466;2023-03-14T08:31:40;1.88;;;0.57;;
63114;SDS011;49208;50.874;6.466;2023-03-14T08:34:05;1.58;;;0.50;;
63114;SDS011;49208;50.874;6.466;2023-03-14T08:36:31;2.13;;;0.77;;
63114;SDS011;49208;50.874;6.466;2023-03-14T08:38:57;0.95;;;0.50;;
63114;SDS011;49208;50.874;6.466;2023-03-14T08:41:22;4.18;;;0.80;;
63114;SDS011;49208;50.874;6.466;2023-03-14T08:43:47;2.95;;;1.05;;
63114;SDS011;49208;50.874;6.466;2023-03-14T08:46:13;1.63;;;0.50;;
63114;SDS011;49208;50.874;6.466;2023-03-14T08:48:38;2.95;;;0.65;;
63114;SDS011;49208;50.874;6.466;2023-03-14T08:51:13;2.60;;;0.82;;
63114;SDS011;49208;50.874;6.466;2023-03-14T08:53:39;1.70;;;0.80;;
63114;SDS011;49208;50.874;6.466;2023-03-14T08:56:06;1.80;;;0.90;;
63114;SDS011;49208;50.874;6.466;2023-03-14T08:58:34;2.75;;;0.60;;
63114;SDS011;49208;50.874;6.466;2023-03-14T09:01:02;1.75;;;0.75;;
63114;SDS011;49208;50.874;6.466;2023-03-14T09:03:27;1.40;;;0.60;;
63114;SDS011;49208;50.874;6.466;2023-03-14T09:05:53;1.67;;;0.52;;
63114;SDS011;49208;50.874;6.466;2023-03-14T09:08:19;1.30;;;0.30;;
63114;SDS011;49208;50.874;6.466;2023-03-14T09:10:44;0.30;;;0.20;;
63114;SDS011;49208;50.874;6.466;2023-03-14T09:13:09;1.83;;;0.38;;
63114;SDS011;49208;50.874;6.466;2023-03-14T09:15:35;2.13;;;0.85;;
63114;SDS011;49208;50.874;6.466;2023-03-14T09:18:01;1.55;;;0.70;;
63114;SDS011;49208;50.874;6.466;2023-03-14T09:20:27;3.45;;;1.30;;
63114;SDS011;49208;50.874;6.466;2023-03-14T09:22:52;2.35;;;1.13;;
63114;SDS011;49208;50.874;6.466;2023-03-14T09:25:17;2.80;;;1.23;;
63114;SDS011;49208;50.874;6.466;2023-03-14T09:27:43;3.35;;;1.40;;
63114;SDS011;49208;50.874;6.466;2023-03-14T09:30:08;2.20;;;1.15;;
63114;SDS011;49208;50.874;6.466;2023-03-14T09:32:34;2.30;;;1.10;;
63114;SDS011;49208;50.874;6.466;2023-03-14T09:35:00;2.75;;;1.08;;
63114;SDS011;49208;50.874;6.466;2023-03-14T09:37:25;2.38;;;0.70;;
63114;SDS011;49208;50.874;6.466;2023-03-14T09:39:51;0.95;;;0.50;;
63114;SDS011;49208;50.874;6.466;2023-03-14T09:42:17;1.40;;;0.75;;
63114;SDS011;49208;50.874;6.466;2023-03-14T09:44:50;1.30;;;0.52;;
63114;SDS011;49208;50.874;6.466;2023-03-14T09:47:30;1.52;;;0.55;;
63114;SDS011;49208;50.874;6.466;2023-03-14T09:49:59;2.17;;;0.90;;
63114;SDS011;49208;50.874;6.466;2023-03-14T09:52:33;1.33;;;0.63;;
63114;SDS011;49208;50.874;6.466;2023-03-14T09:55:05;1.67;;;0.68;;
63114;SDS011;49208;50.874;6.466;2023-03-14T09:57:36;3.38;;;0.80;;
63114;SDS011;49208;50.874;6.466;2023-03-14T10:00:05;1.83;;;0.70;;
63114;SDS011;49208;50.874;6.466;2023-03-14T10:02:39;3.47;;;0.85;;
63114;SDS011;49208;50.874;6.466;2023-03-14T10:05:19;2.00;;;0.85;;
63114;SDS011;49208;50.874;6.466;2023-03-14T10:07:46;2.55;;;0.70;;
63114;SDS011;49208;50.874;6.466;2023-03-14T10:10:13;1.20;;;0.57;;
63114;SDS011;49208;50.874;6.466;2023-03-14T10:12:45;1.98;;;0.60;;
63114;SDS011;49208;50.874;6.466;2023-03-14T10:15:12;0.95;;;0.47;;
63114;SDS011;49208;50.874;6.466;2023-03-14T10:17:49;1.08;;;0.50;;
63114;SDS011;49208;50.874;6.466;2023-03-14T10:20:30;2.88;;;0.80;;
63114;SDS011;49208;50.874;6.466;2023-03-14T10:23:06;2.13;;;0.80;;
63114;SDS011;49208;50.874;6.466;2023-03-14T10:31:26;2.50;;;0.70;;
63114;SDS011;49208;50.874;6.466;2023-03-14T10:34:02;1.10;;;0.80;;
63114;SDS011;49208;50.874;6.466;2023-03-14T10:39:45;2.75;;;1.58;;
63114;SDS011;49208;50.874;6.466;2023-03-14T10:42:05;2.80;;;0.95;;
63114;SDS011;49208;50.874;6.466;2023-03-14T10:44:39;2.85;;;1.20;;
63114;SDS011;49208;50.874;6.466;2023-03-14T10:47:06;3.85;;;0.95;;
63114;SDS011;49208;50.874;6.466;2023-03-14T10:49:35;4.72;;;1.00;;
63114;SDS011;49208;50.874;6.466;2023-03-14T10:54:33;1.52;;;0.80;;
63114;SDS011;49208;50.874;6.466;2023-03-14T10:56:59;1.95;;;0.85;;
63114;SDS011;49208;50.874;6.466;2023-03-14T10:59:27;1.40;;;0.90;;
63114;SDS011;49208;50.874;6.466;2023-03-14T11:05:22;2.97;;;1.10;;
63114;SDS011;49208;50.874;6.466;2023-03-14T11:07:48;3.22;;;1.45;;
63114;SDS011;49208;50.874;6.466;2023-03-14T11:13:01;3.10;;;1.20;;
63114;SDS011;49208;50.874;6.466;2023-03-14T11:15:35;2.60;;;1.25;;
63114;SDS011;49208;50.874;6.466;2023-03-14T11:18:15;3.72;;;1.35;;
63114;SDS011;49208;50.874;6.466;2023-03-14T11:21:02;3.47;;;1.55;;
63114;SDS011;49208;50.874;6.466;2023-03-14T11:29:20;2.60;;;1.13;;
63114;SDS011;49208;50.874;6.466;2023-03-14T11:31:46;3.67;;;1.45;;
63114;SDS011;49208;50.874;6.466;2023-03-14T11:34:17;3.42;;;1.20;;
63114;SDS011;49208;50.874;6.466;2023-03-14T11:36:48;2.95;;;1.17;;
63114;SDS011;49208;50.874;6.466;2023-03-14T11:39:18;7.63;;;1.58;;
63114;SDS011;49208;50.874;6.466;2023-03-14T11:41:53;1.92;;;0.85;;
63114;SDS011;49208;50.874;6.466;2023-03-14T11:44:40;2.50;;;0.82;;
63114;SDS011;49208;50.874;6.466;2023-03-14T11:49:43;3.10;;;0.70;;
63114;SDS011;49208;50.874;6.466;2023-03-14T11:52:58;2.13;;;0.57;;
63114;SDS011;49208;50.874;6.466;2023-03-14T11:55:28;1.58;;;0.60;;
63114;SDS011;49208;50.874;6.466;2023-03-14T11:58:00;1.80;;;0.75;;
63114;SDS011;49208;50.874;6.466;2023-03-14T12:00:28;3.60;;;0.80;;
63114;SDS011;49208;50.874;6.466;2023-03-14T12:06:05;3.08;;;0.80;;
63114;SDS011;49208;50.874;6.466;2023-03-14T12:13:57;2.65;;;0.88;;
63114;SDS011;49208;50.874;6.466;2023-03-14T12:18:48;3.28;;;1.17;;
63114;SDS011;49208;50.874;6.466;2023-03-14T12:21:15;5.57;;;1.40;;
63114;SDS011;49208;50.874;6.466;2023-03-14T12:28:37;3.88;;;1.50;;
63114;SDS011;49208;50.874;6.466;2023-03-14T12:42:12;3.53;;;1.02;;
63114;SDS011;49208;50.874;6.466;2023-03-14T12:44:48;5.95;;;1.17;;
63114;SDS011;49208;50.874;6.466;2023-03-14T12:49:44;3.58;;;1.48;;
63114;SDS011;49208;50.874;6.466;2023-03-14T12:52:31;7.50;;;1.83;;
63114;SDS011;49208;50.874;6.466;2023-03-14T12:55:04;5.50;;;1.40;;
63114;SDS011;49208;50.874;6.466;2023-03-14T13:00:20;5.72;;;1.33;;
63114;SDS011;49208;50.874;6.466;2023-03-14T13:02:48;3.78;;;1.25;;
63114;SDS011;49208;50.874;6.466;2023-03-14T13:05:21;3.47;;;1.63;;
63114;SDS011;49208;50.874;6.466;2023-03-14T13:12:56;4.80;;;1.40;;
63114;SDS011;49208;50.874;6.466;2023-03-14T13:15:27;9.10;;;1.80;;
63114;SDS011;49208;50.874;6.466;2023-03-14T13:17:54;10.00;;;2.00;;
63114;SDS011;49208;50.874;6.466;2023-03-14T13:20:30;5.32;;;1.30;;
63114;SDS011;49208;50.874;6.466;2023-03-14T13:22:59;6.95;;;1.48;;
63114;SDS011;49208;50.874;6.466;2023-03-14T13:25:24;5.43;;;1.50;;
63114;SDS011;49208;50.874;6.466;2023-03-14T13:27:55;4.30;;;1.00;;
63114;SDS011;49208;50.874;6.466;2023-03-14T13:30:27;4.05;;;1.48;;
63114;SDS011;49208;50.874;6.466;2023-03-14T13:33:02;5.93;;;1.65;;
63114;SDS011;49208;50.874;6.466;2023-03-14T13:35:38;7.28;;;1.52;;
63114;SDS011;49208;50.874;6.466;2023-03-14T13:38:13;3.92;;;1.38;;
63114;SDS011;49208;50.874;6.466;2023-03-14T13:40:41;2.03;;;0.73;;
63114;SDS011;49208;50.874;6.466;2023-03-14T13:45:45;3.17;;;1.10;;
63114;SDS011;49208;50.874;6.466;2023-03-14T13:48:14;6.05;;;1.00;;
63114;SDS011;49208;50.874;6.466;2023-03-14T13:50:44;3.63;;;1.08;;
63114;SDS011;49208;50.874;6.466;2023-03-14T13:53:11;6.22;;;1.35;;
63114;SDS011;49208;50.874;6.466;2023-03-14T13:55:37;5.15;;;1.40;;
63114;SDS011;49208;50.874;6.466;2023-03-14T13:58:03;6.38;;;1.55;;
63114;SDS011;49208;50.874;6.466;2023-03-14T14:00:28;6.55;;;1.70;;
63114;SDS011;49208;50.874;6.466;2023-03-14T14:02:55;8.18;;;2.25;;
63114;SDS011;49208;50.874;6.466;2023-03-14T14:05:22;9.18;;;2.10;;
63114;SDS011;49208;50.874;6.466;2023-03-14T14:07:50;9.52;;;2.03;;
63114;SDS011;49208;50.874;6.466;2023-03-14T14:10:17;6.63;;;1.90;;
63114;SDS011;49208;50.874;6.466;2023-03-14T14:12:47;8.35;;;2.33;;
63114;SDS011;49208;50.874;6.466;2023-03-14T14:15:18;8.65;;;2.00;;
63114;SDS011;49208;50.874;6.466;2023-03-14T14:18:00;6.57;;;2.00;;
63114;SDS011;49208;50.874;6.466;2023-03-14T14:20:29;12.50;;;4.05;;
63114;SDS011;49208;50.874;6.466;2023-03-14T14:23:00;11.85;;;2.42;;
63114;SDS011;49208;50.874;6.466;2023-03-14T14:25:28;14.02;;;2.35;;
63114;SDS011;49208;50.874;6.466;2023-03-14T14:27:54;14.90;;;2.38;;
63114;SDS011;49208;50.874;6.466;2023-03-14T14:32:46;8.88;;;1.95;;
63114;SDS011;49208;50.874;6.466;2023-03-14T14:35:24;9.65;;;2.40;;
63114;SDS011;49208;50.874;6.466;2023-03-14T14:37:51;8.00;;;3.17;;
63114;SDS011;49208;50.874;6.466;2023-03-14T14:42:48;11.35;;;2.20;;
63114;SDS011;49208;50.874;6.466;2023-03-14T14:45:24;8.43;;;2.00;;
63114;SDS011;49208;50.874;6.466;2023-03-14T14:52:58;7.75;;;2.00;;
63114;SDS011;49208;50.874;6.466;2023-03-14T14:55:30;11.25;;;2.70;;
63114;SDS011;49208;50.874;6.466;2023-03-14T14:57:58;9.73;;;1.92;;
63114;SDS011;49208;50.874;6.466;2023-03-14T15:00:39;7.75;;;1.85;;
63114;SDS011;49208;50.874;6.466;2023-03-14T15:03:10;9.27;;;1.77;;
63114;SDS011;49208;50.874;6.466;2023-03-14T15:05:38;14.07;;;2.67;;
63114;SDS011;49208;50.874;6.466;2023-03-14T15:08:07;9.75;;;2.67;;
63114;SDS011;49208;50.874;6.466;2023-03-14T15:10:34;7.85;;;2.28;;
63114;SDS011;49208;50.874;6.466;2023-03-14T15:12:59;7.13;;;2.17;;
63114;SDS011;49208;50.874;6.466;2023-03-14T15:15:25;8.77;;;1.85;;
63114;SDS011;49208;50.874;6.466;2023-03-14T15:17:50;9.05;;;1.98;;
63114;SDS011;49208;50.874;6.466;2023-03-14T15:20:16;11.35;;;2.67;;
63114;SDS011;49208;50.874;6.466;2023-03-14T15:22:44;11.27;;;2.03;;
63114;SDS011;49208;50.874;6.466;2023-03-14T15:25:10;5.70;;;1.52;;
63114;SDS011;49208;50.874;6.466;2023-03-14T15:27:36;7.60;;;2.10;;
63114;SDS011;49208;50.874;6.466;2023-03-14T15:30:09;11.45;;;1.92;;
63114;SDS011;49208;50.874;6.466;2023-03-14T15:32:38;6.55;;;1.67;;
63114;SDS011;49208;50.874;6.466;2023-03-14T15:35:03;8.43;;;2.15;;
63114;SDS011;49208;50.874;6.466;2023-03-14T15:37:29;11.93;;;2.33;;
63114;SDS011;49208;50.874;6.466;2023-03-14T15:39:55;8.18;;;1.85;;
63114;SDS011;49208;50.874;6.466;2023-03-14T15:42:23;7.10;;;1.60;;
63114;SDS011;49208;50.874;6.466;2023-03-14T15:44:48;9.07;;;2.45;;
63114;SDS011;49208;50.874;6.466;2023-03-14T15:47:14;15.45;;;2.50;;
63114;SDS011;49208;50.874;6.466;2023-03-14T15:49:39;10.68;;;2.10;;
63114;SDS011;49208;50.874;6.466;2023-03-14T15:52:05;9.15;;;2.70;;
63114;SDS011;49208;50.874;6.466;2023-03-14T15:54:32;11.57;;;2.25;;
63114;SDS011;49208;50.874;6.466;2023-03-14T15:56:58;8.43;;;2.03;;
63114;SDS011;49208;50.874;6.466;2023-03-14T15:59:23;11.90;;;2.30;;
63114;SDS011;49208;50.874;6.466;2023-03-14T16:01:49;11.23;;;2.30;;
63114;SDS011;49208;50.874;6.466;2023-03-14T16:04:14;9.85;;;2.47;;
63114;SDS011;49208;50.874;6.466;2023-03-14T16:06:41;8.18;;;2.30;;
63114;SDS011;49208;50.874;6.466;2023-03-14T16:09:06;8.90;;;2.63;;
63114;SDS011;49208;50.874;6.466;2023-03-14T16:11:32;10.15;;;2.70;;
63114;SDS011;49208;50.874;6.466;2023-03-14T16:13:58;11.27;;;3.10;;
63114;SDS011;49208;50.874;6.466;2023-03-14T16:16:23;9.57;;;2.53;;
63114;SDS011;49208;50.874;6.466;2023-03-14T16:18:48;8.73;;;2.22;;
63114;SDS011;49208;50.874;6.466;2023-03-14T16:21:15;10.80;;;2.30;;
63114;SDS011;49208;50.874;6.466;2023-03-14T16:26:08;12.30;;;1.73;;
63114;SDS011;49208;50.874;6.466;2023-03-14T16:28:35;11.57;;;2.00;;
63114;SDS011;49208;50.874;6.466;2023-03-14T16:31:05;7.60;;;1.40;;
63114;SDS011;49208;50.874;6.466;2023-03-14T16:33:33;7.95;;;1.95;;
63114;SDS011;49208;50.874;6.466;2023-03-14T16:35:59;6.38;;;1.58;;
63114;SDS011;49208;50.874;6.466;2023-03-14T16:38:30;4.95;;;1.25;;
63114;SDS011;49208;50.874;6.466;2023-03-14T16:41:05;3.67;;;1.27;;
63114;SDS011;49208;50.874;6.466;2023-03-14T16:43:38;4.18;;;1.08;;
63114;SDS011;49208;50.874;6.466;2023-03-14T16:46:05;6.55;;;1.27;;
63114;SDS011;49208;50.874;6.466;2023-03-14T16:48:32;4.70;;;1.42;;
63114;SDS011;49208;50.874;6.466;2023-03-14T16:50:58;7.78;;;1.30;;
63114;SDS011;49208;50.874;6.466;2023-03-14T16:53:24;8.10;;;2.00;;
63114;SDS011;49208;50.874;6.466;2023-03-14T16:55:52;8.20;;;1.70;;
63114;SDS011;49208;50.874;6.466;2023-03-14T16:58:18;5.82;;;1.65;;
63114;SDS011;49208;50.874;6.466;2023-03-14T17:00:45;3.38;;;1.38;;
63114;SDS011;49208;50.874;6.466;2023-03-14T17:03:11;9.25;;;1.85;;
63114;SDS011;49208;50.874;6.466;2023-03-14T17:05:36;7.57;;;1.58;;
63114;SDS011;49208;50.874;6.466;2023-03-14T17:08:03;8.73;;;2.28;;
63114;SDS011;49208;50.874;6.466;2023-03-14T17:10:28;7.80;;;1.55;;
63114;SDS011;49208;50.874;6.466;2023-03-14T17:12:54;5.82;;;1.92;;
63114;SDS011;49208;50.874;6.466;2023-03-14T17:15:19;7.85;;;2.08;;
63114;SDS011;49208;50.874;6.466;2023-03-14T17:17:44;4.97;;;1.30;;
63114;SDS011;49208;50.874;6.466;2023-03-14T17:20:10;4.85;;;1.52;;
63114;SDS011;49208;50.874;6.466;2023-03-14T17:22:36;7.18;;;1.95;;
63114;SDS011;49208;50.874;6.466;2023-03-14T17:25:01;6.75;;;1.50;;
63114;SDS011;49208;50.874;6.466;2023-03-14T17:27:27;5.82;;;1.60;;
63114;SDS011;49208;50.874;6.466;2023-03-14T17:29:53;4.60;;;1.33;;
63114;SDS011;49208;50.874;6.466;2023-03-14T17:32:18;4.10;;;1.35;;
63114;SDS011;49208;50.874;6.466;2023-03-14T17:34:44;8.82;;;1.60;;
63114;SDS011;49208;50.874;6.466;2023-03-14T17:37:10;10.90;;;2.00;;
63114;SDS011;49208;50.874;6.466;2023-03-14T17:39:36;6.60;;;1.70;;
63114;SDS011;49208;50.874;6.466;2023-03-14T17:42:02;6.75;;;1.20;;
63114;SDS011;49208;50.874;6.466;2023-03-14T17:44:28;7.10;;;1.00;;
63114;SDS011;49208;50.874;6.466;2023-03-14T17:46:53;4.53;;;1.30;;
63114;SDS011;49208;50.874;6.466;2023-03-14T17:49:20;8.82;;;1.90;;
63114;SDS011;49208;50.874;6.466;2023-03-14T17:51:45;5.60;;;1.65;;
63114;SDS011;49208;50.874;6.466;2023-03-14T17:54:10;13.30;;;2.05;;
63114;SDS011;49208;50.874;6.466;2023-03-14T17:56:36;6.88;;;1.75;;
63114;SDS011;49208;50.874;6.466;2023-03-14T17:59:01;4.78;;;1.45;;
63114;SDS011;49208;50.874;6.466;2023-03-14T18:01:26;6.32;;;1.60;;
63114;SDS011;49208;50.874;6.466;2023-03-14T18:03:52;6.82;;;1.50;;
63114;SDS011;49208;50.874;6.466;2023-03-14T18:06:20;7.18;;;1.35;;
63114;SDS011;49208;50.874;6.466;2023-03-14T18:08:46;7.63;;;1.60;;
63114;SDS011;49208;50.874;6.466;2023-03-14T18:11:12;8.90;;;2.35;;
63114;SDS011;49208;50.874;6.466;2023-03-14T18:13:38;10.23;;;2.25;;
63114;SDS011;49208;50.874;6.466;2023-03-14T18:16:04;9.52;;;2.22;;
63114;SDS011;49208;50.874;6.466;2023-03-14T18:18:31;7.20;;;2.23;;
63114;SDS011;49208;50.874;6.466;2023-03-14T18:20:56;6.80;;;2.30;;
63114;SDS011;49208;50.874;6.466;2023-03-14T18:23:22;11.27;;;3.78;;
63114;SDS011;49208;50.874;6.466;2023-03-14T18:25:48;11.35;;;3.60;;
63114;SDS011;49208;50.874;6.466;2023-03-14T18:28:14;8.70;;;2.00;;
63114;SDS011;49208;50.874;6.466;2023-03-14T18:30:40;6.72;;;2.90;;
63114;SDS011;49208;50.874;6.466;2023-03-14T18:33:06;9.77;;;2.33;;
63114;SDS011;49208;50.874;6.466;2023-03-14T18:35:31;8.52;;;2.92;;
63114;SDS011;49208;50.874;6.466;2023-03-14T18:37:56;12.10;;;5.25;;
63114;SDS011;49208;50.874;6.466;2023-03-14T18:40:22;14.98;;;5.88;;
63114;SDS011;49208;50.874;6.466;2023-03-14T18:42:47;12.75;;;5.70;;
63114;SDS011;49208;50.874;6.466;2023-03-14T18:45:12;14.48;;;5.80;;
63114;SDS011;49208;50.874;6.466;2023-03-14T18:47:38;15.38;;;6.70;;
63114;SDS011;49208;50.874;6.466;2023-03-14T18:50:04;9.80;;;3.30;;
63114;SDS011;49208;50.874;6.466;2023-03-14T18:52:31;11.40;;;5.32;;
63114;SDS011;49208;50.874;6.466;2023-03-14T18:54:56;7.32;;;3.55;;
63114;SDS011;49208;50.874;6.466;2023-03-14T18:57:22;9.85;;;3.05;;
63114;SDS011;49208;50.874;6.466;2023-03-14T18:59:47;12.00;;;3.72;;
63114;SDS011;49208;50.874;6.466;2023-03-14T19:02:13;9.10;;;2.80;;
63114;SDS011;49208;50.874;6.466;2023-03-14T19:04:38;12.30;;;3.13;;
63114;SDS011;49208;50.874;6.466;2023-03-14T19:07:04;6.18;;;2.58;;
63114;SDS011;49208;50.874;6.466;2023-03-14T19:09:29;6.32;;;2.22;;
63114;SDS011;49208;50.874;6.466;2023-03-14T19:11:55;8.98;;;3.80;;
63114;SDS011;49208;50.874;6.466;2023-03-14T19:14:20;7.70;;;1.85;;
63114;SDS011;49208;50.874;6.466;2023-03-14T19:16:46;7.90;;;2.60;;
63114;SDS011;49208;50.874;6.466;2023-03-14T19:19:11;7.00;;;2.17;;
63114;SDS011;49208;50.874;6.466;2023-03-14T19:21:37;11.40;;;2.78;;
63114;SDS011;49208;50.874;6.466;2023-03-14T19:24:03;12.20;;;3.65;;
63114;SDS011;49208;50.874;6.466;2023-03-14T19:26:29;9.13;;;3.60;;
63114;SDS011;49208;50.874;6.466;2023-03-14T19:28:56;10.75;;;3.10;;
63114;SDS011;49208;50.874;6.466;2023-03-14T19:31:22;7.97;;;3.45;;
63114;SDS011;49208;50.874;6.466;2023-03-14T19:33:48;8.88;;;3.13;;
63114;SDS011;49208;50.874;6.466;2023-03-14T19:36:27;10.90;;;2.67;;
63114;SDS011;49208;50.874;6.466;2023-03-14T19:38:54;6.95;;;2.50;;
63114;SDS011;49208;50.874;6.466;2023-03-14T19:41:21;8.32;;;3.03;;
63114;SDS011;49208;50.874;6.466;2023-03-14T19:43:48;9.30;;;3.25;;
63114;SDS011;49208;50.874;6.466;2023-03-14T19:46:14;9.77;;;2.83;;
63114;SDS011;49208;50.874;6.466;2023-03-14T19:48:40;9.23;;;2.83;;
63114;SDS011;49208;50.874;6.466;2023-03-14T19:51:05;9.40;;;2.22;;
63114;SDS011;49208;50.874;6.466;2023-03-14T19:53:31;7.82;;;2.60;;
63114;SDS011;49208;50.874;6.466;2023-03-14T19:55:57;6.10;;;2.70;;
63114;SDS011;49208;50.874;6.466;2023-03-14T19:58:22;9.45;;;2.40;;
63114;SDS011;49208;50.874;6.466;2023-03-14T20:00:48;9.70;;;3.15;;
63114;SDS011;49208;50.874;6.466;2023-03-14T20:03:15;11.75;;;2.70;;
63114;SDS011;49208;50.874;6.466;2023-03-14T20:05:41;7.50;;;2.25;;
63114;SDS011;49208;50.874;6.466;2023-03-14T20:10:34;7.07;;;2.10;;
63114;SDS011;49208;50.874;6.466;2023-03-14T20:13:00;8.30;;;2.70;;
63114;SDS011;49208;50.874;6.466;2023-03-14T20:15:26;5.15;;;1.85;;
63114;SDS011;49208;50.874;6.466;2023-03-14T20:17:51;8.60;;;1.90;;
63114;SDS011;49208;50.874;6.466;2023-03-14T20:20:18;6.03;;;1.85;;
63114;SDS011;49208;50.874;6.466;2023-03-14T20:22:44;6.60;;;2.90;;
63114;SDS011;49208;50.874;6.466;2023-03-14T20:25:11;10.07;;;4.25;;
63114;SDS011;49208;50.874;6.466;2023-03-14T20:27:39;7.80;;;4.22;;
63114;SDS011;49208;50.874;6.466;2023-03-14T20:30:06;8.82;;;3.55;;
63114;SDS011;49208;50.874;6.466;2023-03-14T20:32:36;8.45;;;4.00;;
63114;SDS011;49208;50.874;6.466;2023-03-14T20:35:07;8.68;;;3.60;;
63114;SDS011;49208;50.874;6.466;2023-03-14T20:37:34;9.55;;;2.70;;
63114;SDS011;49208;50.874;6.466;2023-03-14T20:40:00;8.75;;;2.90;;
63114;SDS011;49208;50.874;6.466;2023-03-14T20:42:25;11.18;;;3.17;;
63114;SDS011;49208;50.874;6.466;2023-03-14T20:44:51;11.02;;;3.92;;
63114;SDS011;49208;50.874;6.466;2023-03-14T20:47:18;7.45;;;3.13;;
63114;SDS011;49208;50.874;6.466;2023-03-14T20:49:44;7.63;;;3.15;;
63114;SDS011;49208;50.874;6.466;2023-03-14T20:52:10;7.70;;;3.50;;
63114;SDS011;49208;50.874;6.466;2023-03-14T20:54:36;9.93;;;2.92;;
63114;SDS011;49208;50.874;6.466;2023-03-14T20:57:02;8.55;;;2.33;;
63114;SDS011;49208;50.874;6.466;2023-03-14T20:59:28;4.90;;;2.00;;
63114;SDS011;49208;50.874;6.466;2023-03-14T21:01:53;11.60;;;2.17;;
63114;SDS011;49208;50.874;6.466;2023-03-14T21:04:20;7.60;;;1.60;;
63114;SDS011;49208;50.874;6.466;2023-03-14T21:06:45;8.07;;;2.15;;
63114;SDS011;49208;50.874;6.466;2023-03-14T21:09:11;8.52;;;2.40;;
63114;SDS011;49208;50.874;6.466;2023-03-14T21:11:36;11.43;;;2.40;;
63114;SDS011;49208;50.874;6.466;2023-03-14T21:14:02;13.27;;;2.50;;
63114;SDS011;49208;50.874;6.466;2023-03-14T21:16:28;13.13;;;2.33;;
63114;SDS011;49208;50.874;6.466;2023-03-14T21:18:55;8.38;;;2.47;;
63114;SDS011;49208;50.874;6.466;2023-03-14T21:21:20;10.27;;;2.13;;
63114;SDS011;49208;50.874;6.466;2023-03-14T21:23:46;6.38;;;2.05;;
63114;SDS011;49208;50.874;6.466;2023-03-14T21:26:12;8.90;;;2.25;;
63114;SDS011;49208;50.874;6.466;2023-03-14T21:28:37;8.15;;;2.38;;
63114;SDS011;49208;50.874;6.466;2023-03-14T21:31:07;9.45;;;2.83;;
63114;SDS011;49208;50.874;6.466;2023-03-14T21:33:35;7.97;;;2.17;;
63114;SDS011;49208;50.874;6.466;2023-03-14T21:36:01;9.13;;;1.90;;
63114;SDS011;49208;50.874;6.466;2023-03-14T21:38:26;8.18;;;2.15;;
63114;SDS011;49208;50.874;6.466;2023-03-14T21:40:55;6.57;;;1.88;;
63114;SDS011;49208;50.874;6.466;2023-03-14T21:43:22;5.70;;;2.28;;
63114;SDS011;49208;50.874;6.466;2023-03-14T21:45:48;7.30;;;2.28;;
63114;SDS011;49208;50.874;6.466;2023-03-14T21:48:14;7.82;;;2.38;;
63114;SDS011;49208;50.874;6.466;2023-03-14T21:50:39;5.22;;;2.90;;
63114;SDS011;49208;50.874;6.466;2023-03-14T21:53:05;14.77;;;2.70;;
63114;SDS011;49208;50.874;6.466;2023-03-14T21:55:30;8.75;;;2.50;;
63114;SDS011;49208;50.874;6.466;2023-03-14T21:57:56;13.15;;;3.05;;
63114;SDS011;49208;50.874;6.466;2023-03-14T22:00:22;9.93;;;2.80;;
63114;SDS011;49208;50.874;6.466;2023-03-14T22:02:50;6.63;;;2.67;;
63114;SDS011;49208;50.874;6.466;2023-03-14T22:05:17;7.15;;;2.45;;
63114;SDS011;49208;50.874;6.466;2023-03-14T22:07:43;10.23;;;2.78;;
63114;SDS011;49208;50.874;6.466;2023-03-14T22:10:09;5.85;;;3.10;;
63114;SDS011;49208;50.874;6.466;2023-03-14T22:12:35;9.43;;;3.50;;
63114;SDS011;49208;50.874;6.466;2023-03-14T22:15:02;11.70;;;3.42;;
63114;SDS011;49208;50.874;6.466;2023-03-14T22:17:28;7.53;;;3.95;;
63114;SDS011;49208;50.874;6.466;2023-03-14T22:19:53;9.90;;;3.90;;
63114;SDS011;49208;50.874;6.466;2023-03-14T22:22:19;11.80;;;4.10;;
63114;SDS011;49208;50.874;6.466;2023-03-14T22:24:45;10.80;;;4.20;;
63114;SDS011;49208;50.874;6.466;2023-03-14T22:27:10;11.30;;;4.82;;
63114;SDS011;49208;50.874;6.466;2023-03-14T22:29:35;9.05;;;4.22;;
63114;SDS011;49208;50.874;6.466;2023-03-14T22:32:05;9.48;;;4.45;;
63114;SDS011;49208;50.874;6.466;2023-03-14T22:34:31;11.00;;;4.40;;
63114;SDS011;49208;50.874;6.466;2023-03-14T22:37:00;9.18;;;4.30;;
63114;SDS011;49208;50.874;6.466;2023-03-14T22:39:27;12.82;;;4.80;;
63114;SDS011;49208;50.874;6.466;2023-03-14T22:41:54;12.82;;;4.70;;
63114;SDS011;49208;50.874;6.466;2023-03-14T22:44:20;12.30;;;5.40;;
63114;SDS011;49208;50.874;6.466;2023-03-14T22:46:46;10.68;;;4.80;;
63114;SDS011;49208;50.874;6.466;2023-03-14T22:49:11;9.27;;;4.57;;
63114;SDS011;49208;50.874;6.466;2023-03-14T22:51:37;7.68;;;4.13;;
63114;SDS011;49208;50.874;6.466;2023-03-14T22:54:02;11.18;;;4.00;;
63114;SDS011;49208;50.874;6.466;2023-03-14T22:56:28;10.77;;;4.63;;
63114;SDS011;49208;50.874;6.466;2023-03-14T22:58:56;8.95;;;4.75;;
